sensor_id;sensor_type;location;lat;lon;timestamp;P1;durP1;ratioP1;P2;durP2;ratioP2
10481;SDS011;5288;42.334;23.876;2022-09-02T00:01:17;25.23;;;19.30;;
10481;SDS011;5288;42.334;23.876;2022-09-02T00:03:46;23.60;;;21.10;;
10481;SDS011;5288;42.334;23.876;2022-09-02T00:06:15;23.50;;;21.03;;
10481;SDS011;5288;42.334;23.876;2022-09-02T00:08:43;23.70;;;21.30;;
10481;SDS011;5288;42.334;23.876;2022-09-02T00:11:12;23.07;;;20.67;;
10481;SDS011;5288;42.334;23.876;2022-09-02T00:13:40;25.57;;;22.60;;
10481;SDS011;5288;42.334;23.876;2022-09-02T00:16:09;25.83;;;21.10;;
10481;SDS011;5288;42.334;23.876;2022-09-02T00:18:37;25.60;;;22.90;;
10481;SDS011;5288;42.334;23.876;2022-09-02T00:21:06;27.83;;;22.63;;
10481;SDS011;5288;42.334;23.876;2022-09-02T00:23:33;25.40;;;23.00;;
10481;SDS011;5288;42.334;23.876;2022-09-02T00:26:00;28.90;;;24.57;;
10481;SDS011;5288;42.334;23.876;2022-09-02T00:28:27;38.07;;;27.43;;
10481;SDS011;5288;42.334;23.876;2022-09-02T00:30:54;29.13;;;25.93;;
10481;SDS011;5288;42.334;23.876;2022-09-02T00:33:23;31.83;;;27.37;;
10481;SDS011;5288;42.334;23.876;2022-09-02T00:35:50;32.50;;;28.37;;
10481;SDS011;5288;42.334;23.876;2022-09-02T00:38:17;31.53;;;28.17;;
10481;SDS011;5288;42.334;23.876;2022-09-02T00:40:44;31.47;;;26.63;;
10481;SDS011;5288;42.334;23.876;2022-09-02T00:43:20;34.80;;;27.90;;
10481;SDS011;5288;42.334;23.876;2022-09-02T00:45:49;30.87;;;27.53;;
10481;SDS011;5288;42.334;23.876;2022-09-02T00:48:17;31.00;;;27.57;;
10481;SDS011;5288;42.334;23.876;2022-09-02T00:50:46;30.23;;;27.33;;
10481;SDS011;5288;42.334;23.876;2022-09-02T00:53:15;32.87;;;27.70;;
10481;SDS011;5288;42.334;23.876;2022-09-02T00:55:44;34.90;;;30.50;;
10481;SDS011;5288;42.334;23.876;2022-09-02T00:58:15;36.60;;;31.33;;
10481;SDS011;5288;42.334;23.876;2022-09-02T01:00:45;40.60;;;33.03;;
10481;SDS011;5288;42.334;23.876;2022-09-02T01:03:18;36.90;;;32.50;;
10481;SDS011;5288;42.334;23.876;2022-09-02T01:05:49;40.57;;;32.63;;
10481;SDS011;5288;42.334;23.876;2022-09-02T01:08:18;35.73;;;31.80;;
10481;SDS011;5288;42.334;23.876;2022-09-02T01:10:49;35.60;;;31.67;;
10481;SDS011;5288;42.334;23.876;2022-09-02T01:13:20;35.60;;;29.13;;
10481;SDS011;5288;42.334;23.876;2022-09-02T01:15:51;34.03;;;29.63;;
10481;SDS011;5288;42.334;23.876;2022-09-02T01:18:21;34.10;;;29.63;;
10481;SDS011;5288;42.334;23.876;2022-09-02T01:20:54;31.20;;;28.00;;
10481;SDS011;5288;42.334;23.876;2022-09-02T01:23:24;35.93;;;29.37;;
10481;SDS011;5288;42.334;23.876;2022-09-02T01:25:53;31.70;;;28.40;;
10481;SDS011;5288;42.334;23.876;2022-09-02T01:28:20;37.20;;;28.67;;
10481;SDS011;5288;42.334;23.876;2022-09-02T01:30:48;31.70;;;28.23;;
10481;SDS011;5288;42.334;23.876;2022-09-02T01:33:17;32.80;;;28.90;;
10481;SDS011;5288;42.334;23.876;2022-09-02T01:35:46;31.40;;;27.33;;
10481;SDS011;5288;42.334;23.876;2022-09-02T01:38:14;33.53;;;27.97;;
10481;SDS011;5288;42.334;23.876;2022-09-02T01:40:43;29.30;;;25.97;;
10481;SDS011;5288;42.334;23.876;2022-09-02T01:43:11;33.03;;;27.70;;
10481;SDS011;5288;42.334;23.876;2022-09-02T01:45:41;30.53;;;25.50;;
10481;SDS011;5288;42.334;23.876;2022-09-02T01:48:09;31.57;;;25.93;;
10481;SDS011;5288;42.334;23.876;2022-09-02T01:50:38;32.70;;;25.50;;
10481;SDS011;5288;42.334;23.876;2022-09-02T01:53:07;27.43;;;24.70;;
10481;SDS011;5288;42.334;23.876;2022-09-02T01:55:34;28.73;;;25.10;;
10481;SDS011;5288;42.334;23.876;2022-09-02T01:58:03;28.07;;;25.07;;
10481;SDS011;5288;42.334;23.876;2022-09-02T02:00:30;28.83;;;24.83;;
10481;SDS011;5288;42.334;23.876;2022-09-02T02:02:57;30.57;;;27.27;;
10481;SDS011;5288;42.334;23.876;2022-09-02T02:05:24;29.30;;;25.27;;
10481;SDS011;5288;42.334;23.876;2022-09-02T02:07:51;27.67;;;24.60;;
10481;SDS011;5288;42.334;23.876;2022-09-02T02:10:18;32.50;;;25.73;;
10481;SDS011;5288;42.334;23.876;2022-09-02T02:12:46;28.37;;;24.43;;
10481;SDS011;5288;42.334;23.876;2022-09-02T02:15:16;26.30;;;23.60;;
10481;SDS011;5288;42.334;23.876;2022-09-02T02:17:45;28.13;;;24.73;;
10481;SDS011;5288;42.334;23.876;2022-09-02T02:20:13;26.20;;;23.50;;
10481;SDS011;5288;42.334;23.876;2022-09-02T02:22:42;33.60;;;24.20;;
10481;SDS011;5288;42.334;23.876;2022-09-02T02:25:10;27.57;;;24.67;;
10481;SDS011;5288;42.334;23.876;2022-09-02T02:27:39;28.73;;;24.37;;
10481;SDS011;5288;42.334;23.876;2022-09-02T02:30:07;29.10;;;24.77;;
10481;SDS011;5288;42.334;23.876;2022-09-02T02:32:37;30.97;;;24.70;;
10481;SDS011;5288;42.334;23.876;2022-09-02T02:35:04;28.57;;;23.83;;
10481;SDS011;5288;42.334;23.876;2022-09-02T02:37:32;28.13;;;25.00;;
10481;SDS011;5288;42.334;23.876;2022-09-02T02:39:59;28.97;;;25.87;;
10481;SDS011;5288;42.334;23.876;2022-09-02T02:42:27;27.83;;;24.87;;
10481;SDS011;5288;42.334;23.876;2022-09-02T02:44:54;36.13;;;25.40;;
10481;SDS011;5288;42.334;23.876;2022-09-02T02:47:21;28.10;;;24.23;;
10481;SDS011;5288;42.334;23.876;2022-09-02T02:49:50;28.30;;;25.30;;
10481;SDS011;5288;42.334;23.876;2022-09-02T02:52:17;30.13;;;25.47;;
10481;SDS011;5288;42.334;23.876;2022-09-02T02:54:45;33.70;;;25.47;;
10481;SDS011;5288;42.334;23.876;2022-09-02T02:57:12;29.43;;;26.13;;
10481;SDS011;5288;42.334;23.876;2022-09-02T02:59:39;28.23;;;25.33;;
10481;SDS011;5288;42.334;23.876;2022-09-02T03:02:06;30.03;;;25.63;;
10481;SDS011;5288;42.334;23.876;2022-09-02T03:04:33;33.93;;;25.43;;
10481;SDS011;5288;42.334;23.876;2022-09-02T03:07:02;28.33;;;25.33;;
10481;SDS011;5288;42.334;23.876;2022-09-02T03:09:31;29.47;;;25.87;;
10481;SDS011;5288;42.334;23.876;2022-09-02T03:11:58;32.50;;;27.47;;
10481;SDS011;5288;42.334;23.876;2022-09-02T03:14:25;35.23;;;26.73;;
10481;SDS011;5288;42.334;23.876;2022-09-02T03:16:52;31.20;;;26.50;;
10481;SDS011;5288;42.334;23.876;2022-09-02T03:19:20;32.93;;;27.87;;
10481;SDS011;5288;42.334;23.876;2022-09-02T03:21:47;29.43;;;26.23;;
10481;SDS011;5288;42.334;23.876;2022-09-02T03:24:15;30.27;;;27.07;;
10481;SDS011;5288;42.334;23.876;2022-09-02T03:26:42;30.30;;;27.10;;
10481;SDS011;5288;42.334;23.876;2022-09-02T03:29:09;30.13;;;26.93;;
10481;SDS011;5288;42.334;23.876;2022-09-02T03:31:36;29.90;;;26.70;;
10481;SDS011;5288;42.334;23.876;2022-09-02T03:34:03;32.40;;;26.53;;
10481;SDS011;5288;42.334;23.876;2022-09-02T03:36:32;39.13;;;33.00;;
10481;SDS011;5288;42.334;23.876;2022-09-02T03:39:01;31.53;;;28.23;;
10481;SDS011;5288;42.334;23.876;2022-09-02T03:41:31;29.90;;;23.77;;
10481;SDS011;5288;42.334;23.876;2022-09-02T03:43:58;33.63;;;25.53;;
10481;SDS011;5288;42.334;23.876;2022-09-02T03:46:26;25.87;;;23.10;;
10481;SDS011;5288;42.334;23.876;2022-09-02T03:48:53;26.83;;;23.97;;
10481;SDS011;5288;42.334;23.876;2022-09-02T03:51:21;24.53;;;22.03;;
10481;SDS011;5288;42.334;23.876;2022-09-02T03:53:49;25.57;;;22.07;;
10481;SDS011;5288;42.334;23.876;2022-09-02T03:56:16;26.87;;;22.37;;
10481;SDS011;5288;42.334;23.876;2022-09-02T03:58:45;26.53;;;22.53;;
10481;SDS011;5288;42.334;23.876;2022-09-02T04:01:14;30.50;;;21.93;;
10481;SDS011;5288;42.334;23.876;2022-09-02T04:03:42;25.60;;;22.40;;
10481;SDS011;5288;42.334;23.876;2022-09-02T04:06:09;26.63;;;22.80;;
10481;SDS011;5288;42.334;23.876;2022-09-02T04:08:38;26.80;;;21.83;;
10481;SDS011;5288;42.334;23.876;2022-09-02T04:11:05;25.53;;;22.27;;
10481;SDS011;5288;42.334;23.876;2022-09-02T04:13:34;24.87;;;22.13;;
10481;SDS011;5288;42.334;23.876;2022-09-02T04:16:06;24.53;;;21.90;;
10481;SDS011;5288;42.334;23.876;2022-09-02T04:18:34;25.77;;;21.40;;
10481;SDS011;5288;42.334;23.876;2022-09-02T04:21:01;24.80;;;21.93;;
10481;SDS011;5288;42.334;23.876;2022-09-02T04:23:29;25.00;;;22.40;;
10481;SDS011;5288;42.334;23.876;2022-09-02T04:25:56;29.73;;;22.80;;
10481;SDS011;5288;42.334;23.876;2022-09-02T04:28:23;25.43;;;22.77;;
10481;SDS011;5288;42.334;23.876;2022-09-02T04:30:50;27.97;;;23.37;;
10481;SDS011;5288;42.334;23.876;2022-09-02T04:33:19;25.17;;;22.53;;
10481;SDS011;5288;42.334;23.876;2022-09-02T04:35:46;26.47;;;23.43;;
10481;SDS011;5288;42.334;23.876;2022-09-02T04:38:14;26.20;;;23.00;;
10481;SDS011;5288;42.334;23.876;2022-09-02T04:40:42;26.13;;;23.07;;
10481;SDS011;5288;42.334;23.876;2022-09-02T04:43:12;35.47;;;23.83;;
10481;SDS011;5288;42.334;23.876;2022-09-02T04:45:40;32.37;;;24.23;;
10481;SDS011;5288;42.334;23.876;2022-09-02T04:48:08;25.73;;;22.93;;
10481;SDS011;5288;42.334;23.876;2022-09-02T04:50:37;27.27;;;24.47;;
10481;SDS011;5288;42.334;23.876;2022-09-02T04:53:05;28.27;;;24.00;;
10481;SDS011;5288;42.334;23.876;2022-09-02T04:55:33;26.27;;;23.50;;
10481;SDS011;5288;42.334;23.876;2022-09-02T04:58:00;28.80;;;24.83;;
10481;SDS011;5288;42.334;23.876;2022-09-02T05:00:27;27.97;;;24.97;;
10481;SDS011;5288;42.334;23.876;2022-09-02T05:02:55;27.90;;;23.40;;
10481;SDS011;5288;42.334;23.876;2022-09-02T05:05:25;27.60;;;24.60;;
10481;SDS011;5288;42.334;23.876;2022-09-02T05:07:54;29.17;;;25.43;;
10481;SDS011;5288;42.334;23.876;2022-09-02T05:10:22;29.37;;;25.53;;
10481;SDS011;5288;42.334;23.876;2022-09-02T05:12:49;31.40;;;24.63;;
10481;SDS011;5288;42.334;23.876;2022-09-02T05:15:17;29.93;;;25.00;;
10481;SDS011;5288;42.334;23.876;2022-09-02T05:17:44;28.80;;;24.37;;
10481;SDS011;5288;42.334;23.876;2022-09-02T05:20:11;27.60;;;24.77;;
10481;SDS011;5288;42.334;23.876;2022-09-02T05:22:38;35.00;;;28.97;;
10481;SDS011;5288;42.334;23.876;2022-09-02T05:25:09;86.67;;;56.40;;
10481;SDS011;5288;42.334;23.876;2022-09-02T05:27:37;27.27;;;24.37;;
10481;SDS011;5288;42.334;23.876;2022-09-02T05:30:09;26.20;;;23.47;;
10481;SDS011;5288;42.334;23.876;2022-09-02T05:32:37;27.27;;;24.33;;
10481;SDS011;5288;42.334;23.876;2022-09-02T05:35:05;28.00;;;25.00;;
10481;SDS011;5288;42.334;23.876;2022-09-02T05:37:33;29.60;;;25.33;;
10481;SDS011;5288;42.334;23.876;2022-09-02T05:40:01;30.67;;;26.40;;
10481;SDS011;5288;42.334;23.876;2022-09-02T05:42:30;29.57;;;25.40;;
10481;SDS011;5288;42.334;23.876;2022-09-02T05:44:57;32.10;;;25.90;;
10481;SDS011;5288;42.334;23.876;2022-09-02T05:47:24;30.23;;;26.30;;
10481;SDS011;5288;42.334;23.876;2022-09-02T05:49:51;29.40;;;26.20;;
10481;SDS011;5288;42.334;23.876;2022-09-02T05:52:18;27.97;;;24.97;;
10481;SDS011;5288;42.334;23.876;2022-09-02T05:54:46;31.03;;;25.47;;
10481;SDS011;5288;42.334;23.876;2022-09-02T05:57:14;36.70;;;26.87;;
10481;SDS011;5288;42.334;23.876;2022-09-02T05:59:43;28.40;;;22.93;;
10481;SDS011;5288;42.334;23.876;2022-09-02T06:02:13;26.80;;;24.00;;
10481;SDS011;5288;42.334;23.876;2022-09-02T06:04:42;26.37;;;23.47;;
10481;SDS011;5288;42.334;23.876;2022-09-02T06:07:10;24.90;;;22.40;;
10481;SDS011;5288;42.334;23.876;2022-09-02T06:09:37;26.90;;;23.97;;
10481;SDS011;5288;42.334;23.876;2022-09-02T06:12:05;28.83;;;25.73;;
10481;SDS011;5288;42.334;23.876;2022-09-02T06:14:33;28.53;;;25.33;;
10481;SDS011;5288;42.334;23.876;2022-09-02T06:17:03;29.83;;;26.60;;
10481;SDS011;5288;42.334;23.876;2022-09-02T06:19:31;37.47;;;27.37;;
10481;SDS011;5288;42.334;23.876;2022-09-02T06:21:58;31.00;;;26.83;;
10481;SDS011;5288;42.334;23.876;2022-09-02T06:24:27;32.83;;;26.63;;
10481;SDS011;5288;42.334;23.876;2022-09-02T06:26:55;30.80;;;26.40;;
10481;SDS011;5288;42.334;23.876;2022-09-02T06:29:23;32.83;;;26.67;;
10481;SDS011;5288;42.334;23.876;2022-09-02T06:31:51;27.97;;;25.00;;
10481;SDS011;5288;42.334;23.876;2022-09-02T06:34:21;28.43;;;25.03;;
10481;SDS011;5288;42.334;23.876;2022-09-02T06:36:51;28.27;;;25.20;;
10481;SDS011;5288;42.334;23.876;2022-09-02T06:39:19;27.03;;;24.23;;
10481;SDS011;5288;42.334;23.876;2022-09-02T06:41:47;30.37;;;25.33;;
10481;SDS011;5288;42.334;23.876;2022-09-02T06:44:16;24.27;;;21.83;;
10481;SDS011;5288;42.334;23.876;2022-09-02T06:46:47;26.77;;;24.07;;
10481;SDS011;5288;42.334;23.876;2022-09-02T06:49:19;26.90;;;24.00;;
10481;SDS011;5288;42.334;23.876;2022-09-02T06:51:48;30.00;;;25.80;;
10481;SDS011;5288;42.334;23.876;2022-09-02T06:54:17;26.63;;;23.80;;
10481;SDS011;5288;42.334;23.876;2022-09-02T06:56:46;29.13;;;25.97;;
10481;SDS011;5288;42.334;23.876;2022-09-02T06:59:15;24.50;;;22.13;;
10481;SDS011;5288;42.334;23.876;2022-09-02T07:01:43;23.70;;;21.40;;
10481;SDS011;5288;42.334;23.876;2022-09-02T07:04:10;24.17;;;21.70;;
10481;SDS011;5288;42.334;23.876;2022-09-02T07:06:56;23.57;;;21.13;;
10481;SDS011;5288;42.334;23.876;2022-09-02T07:09:24;25.27;;;22.73;;
10481;SDS011;5288;42.334;23.876;2022-09-02T07:11:55;25.10;;;22.60;;
10481;SDS011;5288;42.334;23.876;2022-09-02T07:14:24;26.30;;;23.43;;
10481;SDS011;5288;42.334;23.876;2022-09-02T07:16:53;24.80;;;22.37;;
10481;SDS011;5288;42.334;23.876;2022-09-02T07:19:24;26.73;;;22.47;;
10481;SDS011;5288;42.334;23.876;2022-09-02T07:21:51;22.80;;;19.63;;
10481;SDS011;5288;42.334;23.876;2022-09-02T07:24:20;23.03;;;20.70;;
10481;SDS011;5288;42.334;23.876;2022-09-02T07:26:47;21.27;;;19.20;;
10481;SDS011;5288;42.334;23.876;2022-09-02T07:29:15;20.53;;;18.53;;
10481;SDS011;5288;42.334;23.876;2022-09-02T07:31:43;19.27;;;17.37;;
10481;SDS011;5288;42.334;23.876;2022-09-02T07:34:12;19.77;;;17.70;;
10481;SDS011;5288;42.334;23.876;2022-09-02T07:36:40;24.87;;;17.80;;
10481;SDS011;5288;42.334;23.876;2022-09-02T07:39:08;23.50;;;18.50;;
10481;SDS011;5288;42.334;23.876;2022-09-02T07:41:38;21.33;;;17.63;;
10481;SDS011;5288;42.334;23.876;2022-09-02T07:44:06;19.13;;;17.10;;
10481;SDS011;5288;42.334;23.876;2022-09-02T07:46:34;18.90;;;17.00;;
10481;SDS011;5288;42.334;23.876;2022-09-02T07:49:03;19.20;;;17.20;;
10481;SDS011;5288;42.334;23.876;2022-09-02T07:51:32;19.13;;;17.13;;
10481;SDS011;5288;42.334;23.876;2022-09-02T07:53:59;19.33;;;17.23;;
10481;SDS011;5288;42.334;23.876;2022-09-02T07:56:26;19.73;;;17.63;;
10481;SDS011;5288;42.334;23.876;2022-09-02T07:58:55;18.03;;;16.23;;
10481;SDS011;5288;42.334;23.876;2022-09-02T08:01:22;19.90;;;17.23;;
10481;SDS011;5288;42.334;23.876;2022-09-02T08:03:50;19.10;;;17.17;;
10481;SDS011;5288;42.334;23.876;2022-09-02T08:06:18;19.30;;;17.43;;
10481;SDS011;5288;42.334;23.876;2022-09-02T08:08:48;21.50;;;18.00;;
10481;SDS011;5288;42.334;23.876;2022-09-02T08:11:15;21.30;;;19.03;;
10481;SDS011;5288;42.334;23.876;2022-09-02T08:13:42;18.57;;;16.67;;
10481;SDS011;5288;42.334;23.876;2022-09-02T08:16:10;19.07;;;17.17;;
10481;SDS011;5288;42.334;23.876;2022-09-02T08:18:38;19.30;;;16.90;;
10481;SDS011;5288;42.334;23.876;2022-09-02T08:21:05;19.83;;;17.73;;
10481;SDS011;5288;42.334;23.876;2022-09-02T08:23:32;19.23;;;17.23;;
10481;SDS011;5288;42.334;23.876;2022-09-02T08:25:59;18.67;;;16.77;;
10481;SDS011;5288;42.334;23.876;2022-09-02T08:28:27;19.20;;;17.30;;
10481;SDS011;5288;42.334;23.876;2022-09-02T08:30:56;18.13;;;16.23;;
10481;SDS011;5288;42.334;23.876;2022-09-02T08:33:24;20.70;;;16.43;;
10481;SDS011;5288;42.334;23.876;2022-09-02T08:35:52;18.47;;;16.57;;
10481;SDS011;5288;42.334;23.876;2022-09-02T08:38:19;20.20;;;18.17;;
10481;SDS011;5288;42.334;23.876;2022-09-02T08:40:46;23.70;;;20.30;;
10481;SDS011;5288;42.334;23.876;2022-09-02T08:43:19;25.27;;;21.53;;
10481;SDS011;5288;42.334;23.876;2022-09-02T08:45:57;21.77;;;19.57;;
10481;SDS011;5288;42.334;23.876;2022-09-02T08:48:33;22.90;;;20.70;;
10481;SDS011;5288;42.334;23.876;2022-09-02T08:51:06;21.17;;;18.97;;
10481;SDS011;5288;42.334;23.876;2022-09-02T08:53:35;22.30;;;20.10;;
10481;SDS011;5288;42.334;23.876;2022-09-02T08:56:10;20.90;;;18.70;;
10481;SDS011;5288;42.334;23.876;2022-09-02T08:58:42;23.50;;;19.47;;
10481;SDS011;5288;42.334;23.876;2022-09-02T09:01:13;20.63;;;18.43;;
10481;SDS011;5288;42.334;23.876;2022-09-02T09:03:56;22.57;;;20.37;;
10481;SDS011;5288;42.334;23.876;2022-09-02T09:06:32;21.47;;;19.33;;
10481;SDS011;5288;42.334;23.876;2022-09-02T09:09:09;21.73;;;19.43;;
10481;SDS011;5288;42.334;23.876;2022-09-02T09:11:44;19.73;;;17.63;;
10481;SDS011;5288;42.334;23.876;2022-09-02T09:14:24;20.13;;;18.07;;
10481;SDS011;5288;42.334;23.876;2022-09-02T09:16:58;20.33;;;18.40;;
10481;SDS011;5288;42.334;23.876;2022-09-02T09:19:30;22.20;;;16.83;;
10481;SDS011;5288;42.334;23.876;2022-09-02T09:22:13;20.87;;;18.40;;
10481;SDS011;5288;42.334;23.876;2022-09-02T09:24:44;17.53;;;15.87;;
10481;SDS011;5288;42.334;23.876;2022-09-02T09:27:13;19.03;;;17.23;;
10481;SDS011;5288;42.334;23.876;2022-09-02T09:29:43;19.07;;;17.03;;
10481;SDS011;5288;42.334;23.876;2022-09-02T09:32:11;20.03;;;17.50;;
10481;SDS011;5288;42.334;23.876;2022-09-02T09:34:58;19.97;;;17.80;;
10481;SDS011;5288;42.334;23.876;2022-09-02T09:37:32;19.00;;;17.00;;
10481;SDS011;5288;42.334;23.876;2022-09-02T09:42:55;21.27;;;19.20;;
10481;SDS011;5288;42.334;23.876;2022-09-02T09:45:25;21.03;;;19.03;;
10481;SDS011;5288;42.334;23.876;2022-09-02T09:48:07;19.27;;;17.20;;
10481;SDS011;5288;42.334;23.876;2022-09-02T09:51:13;20.97;;;18.97;;
10481;SDS011;5288;42.334;23.876;2022-09-02T09:53:43;22.10;;;19.90;;
10481;SDS011;5288;42.334;23.876;2022-09-02T09:59:06;20.03;;;17.97;;
10481;SDS011;5288;42.334;23.876;2022-09-02T10:01:54;22.90;;;18.83;;
10481;SDS011;5288;42.334;23.876;2022-09-02T10:04:24;18.67;;;16.87;;
10481;SDS011;5288;42.334;23.876;2022-09-02T10:06:57;22.43;;;19.53;;
10481;SDS011;5288;42.334;23.876;2022-09-02T10:09:28;20.20;;;18.10;;
10481;SDS011;5288;42.334;23.876;2022-09-02T10:11:58;20.80;;;18.70;;
10481;SDS011;5288;42.334;23.876;2022-09-02T10:14:29;21.20;;;19.20;;
10481;SDS011;5288;42.334;23.876;2022-09-02T10:17:02;22.83;;;19.03;;
10481;SDS011;5288;42.334;23.876;2022-09-02T10:19:42;21.57;;;19.13;;
10481;SDS011;5288;42.334;23.876;2022-09-02T10:22:25;20.70;;;18.70;;
10481;SDS011;5288;42.334;23.876;2022-09-02T10:25:06;21.70;;;18.80;;
10481;SDS011;5288;42.334;23.876;2022-09-02T10:27:46;22.17;;;20.07;;
10481;SDS011;5288;42.334;23.876;2022-09-02T10:30:21;20.63;;;18.47;;
10481;SDS011;5288;42.334;23.876;2022-09-02T10:35:46;24.50;;;21.90;;
10481;SDS011;5288;42.334;23.876;2022-09-02T10:38:24;24.27;;;21.83;;
10481;SDS011;5288;42.334;23.876;2022-09-02T10:40:58;25.53;;;22.87;;
10481;SDS011;5288;42.334;23.876;2022-09-02T10:43:40;27.90;;;25.07;;
10481;SDS011;5288;42.334;23.876;2022-09-02T10:46:23;25.00;;;22.40;;
10481;SDS011;5288;42.334;23.876;2022-09-02T10:48:55;27.57;;;22.37;;
10481;SDS011;5288;42.334;23.876;2022-09-02T10:51:32;23.63;;;21.17;;
10481;SDS011;5288;42.334;23.876;2022-09-02T10:54:12;25.83;;;23.23;;
10481;SDS011;5288;42.334;23.876;2022-09-02T10:56:52;24.43;;;22.00;;
10481;SDS011;5288;42.334;23.876;2022-09-02T10:59:26;24.17;;;21.77;;
10481;SDS011;5288;42.334;23.876;2022-09-02T11:01:59;25.87;;;22.40;;
10481;SDS011;5288;42.334;23.876;2022-09-02T11:04:38;23.80;;;21.37;;
10481;SDS011;5288;42.334;23.876;2022-09-02T11:07:14;23.17;;;20.73;;
10481;SDS011;5288;42.334;23.876;2022-09-02T11:09:46;23.30;;;21.13;;
10481;SDS011;5288;42.334;23.876;2022-09-02T11:12:20;25.53;;;22.63;;
10481;SDS011;5288;42.334;23.876;2022-09-02T11:14:54;23.30;;;20.90;;
10481;SDS011;5288;42.334;23.876;2022-09-02T11:17:29;23.77;;;21.37;;
10481;SDS011;5288;42.334;23.876;2022-09-02T11:20:04;22.60;;;20.50;;
10481;SDS011;5288;42.334;23.876;2022-09-02T11:22:40;23.47;;;21.07;;
10481;SDS011;5288;42.334;23.876;2022-09-02T11:25:21;24.47;;;20.07;;
10481;SDS011;5288;42.334;23.876;2022-09-02T11:27:53;24.60;;;19.50;;
10481;SDS011;5288;42.334;23.876;2022-09-02T11:30:34;22.97;;;20.53;;
10481;SDS011;5288;42.334;23.876;2022-09-02T11:33:09;28.63;;;20.97;;
10481;SDS011;5288;42.334;23.876;2022-09-02T11:35:43;22.00;;;19.10;;
10481;SDS011;5288;42.334;23.876;2022-09-02T11:38:16;23.10;;;20.83;;
10481;SDS011;5288;42.334;23.876;2022-09-02T11:41:02;25.83;;;20.07;;
10481;SDS011;5288;42.334;23.876;2022-09-02T11:44:00;24.60;;;21.23;;
10481;SDS011;5288;42.334;23.876;2022-09-02T11:46:59;28.17;;;23.17;;
10481;SDS011;5288;42.334;23.876;2022-09-02T11:49:44;22.10;;;19.50;;
10481;SDS011;5288;42.334;23.876;2022-09-02T11:52:31;28.27;;;21.90;;
10481;SDS011;5288;42.334;23.876;2022-09-02T11:55:14;24.93;;;22.50;;
10481;SDS011;5288;42.334;23.876;2022-09-02T11:57:51;24.77;;;22.40;;
10481;SDS011;5288;42.334;23.876;2022-09-02T12:00:25;26.93;;;23.50;;
10481;SDS011;5288;42.334;23.876;2022-09-02T12:02:59;26.53;;;21.90;;
10481;SDS011;5288;42.334;23.876;2022-09-02T12:05:45;42.67;;;22.40;;
10481;SDS011;5288;42.334;23.876;2022-09-02T12:11:35;28.30;;;21.60;;
10481;SDS011;5288;42.334;23.876;2022-09-02T12:29:49;23.33;;;20.13;;
10481;SDS011;5288;42.334;23.876;2022-09-02T12:35:30;19.43;;;17.37;;
10481;SDS011;5288;42.334;23.876;2022-09-02T12:41:08;19.70;;;17.80;;
10481;SDS011;5288;42.334;23.876;2022-09-02T12:43:45;23.60;;;18.13;;
10481;SDS011;5288;42.334;23.876;2022-09-02T12:46:24;20.57;;;18.37;;
10481;SDS011;5288;42.334;23.876;2022-09-02T12:49:00;20.27;;;18.17;;
10481;SDS011;5288;42.334;23.876;2022-09-02T12:51:53;23.73;;;18.17;;
10481;SDS011;5288;42.334;23.876;2022-09-02T12:54:25;21.70;;;18.50;;
10481;SDS011;5288;42.334;23.876;2022-09-02T12:57:02;22.13;;;17.37;;
10481;SDS011;5288;42.334;23.876;2022-09-02T12:59:30;20.33;;;18.50;;
10481;SDS011;5288;42.334;23.876;2022-09-02T13:02:09;18.27;;;16.57;;
10481;SDS011;5288;42.334;23.876;2022-09-02T13:04:49;20.20;;;16.53;;
10481;SDS011;5288;42.334;23.876;2022-09-02T13:07:39;16.97;;;14.93;;
10481;SDS011;5288;42.334;23.876;2022-09-02T13:16:26;16.87;;;13.30;;
10481;SDS011;5288;42.334;23.876;2022-09-02T13:22:23;22.87;;;13.47;;
10481;SDS011;5288;42.334;23.876;2022-09-02T13:25:23;14.10;;;12.30;;
10481;SDS011;5288;42.334;23.876;2022-09-02T13:28:19;14.07;;;12.63;;
10481;SDS011;5288;42.334;23.876;2022-09-02T13:31:07;14.63;;;11.73;;
10481;SDS011;5288;42.334;23.876;2022-09-02T13:33:42;14.00;;;12.60;;
10481;SDS011;5288;42.334;23.876;2022-09-02T13:36:09;13.33;;;12.13;;
10481;SDS011;5288;42.334;23.876;2022-09-02T13:38:44;15.80;;;14.20;;
10481;SDS011;5288;42.334;23.876;2022-09-02T13:41:25;14.13;;;12.73;;
10481;SDS011;5288;42.334;23.876;2022-09-02T13:44:05;16.93;;;12.30;;
10481;SDS011;5288;42.334;23.876;2022-09-02T13:46:33;14.17;;;12.77;;
10481;SDS011;5288;42.334;23.876;2022-09-02T13:49:16;13.70;;;12.27;;
10481;SDS011;5288;42.334;23.876;2022-09-02T13:51:45;12.40;;;11.30;;
10481;SDS011;5288;42.334;23.876;2022-09-02T13:54:12;12.47;;;11.07;;
10481;SDS011;5288;42.334;23.876;2022-09-02T13:56:40;12.00;;;9.17;;
10481;SDS011;5288;42.334;23.876;2022-09-02T13:59:08;10.83;;;9.60;;
10481;SDS011;5288;42.334;23.876;2022-09-02T14:01:36;8.53;;;7.67;;
10481;SDS011;5288;42.334;23.876;2022-09-02T14:04:05;9.37;;;8.53;;
10481;SDS011;5288;42.334;23.876;2022-09-02T14:06:37;8.90;;;8.10;;
10481;SDS011;5288;42.334;23.876;2022-09-02T14:09:09;9.10;;;8.20;;
10481;SDS011;5288;42.334;23.876;2022-09-02T14:11:45;10.53;;;7.50;;
10481;SDS011;5288;42.334;23.876;2022-09-02T14:14:15;8.77;;;7.80;;
10481;SDS011;5288;42.334;23.876;2022-09-02T14:16:45;8.50;;;7.73;;
10481;SDS011;5288;42.334;23.876;2022-09-02T14:19:21;12.97;;;8.00;;
10481;SDS011;5288;42.334;23.876;2022-09-02T14:21:50;8.50;;;7.70;;
10481;SDS011;5288;42.334;23.876;2022-09-02T14:24:20;9.33;;;8.27;;
10481;SDS011;5288;42.334;23.876;2022-09-02T14:26:49;8.80;;;7.83;;
10481;SDS011;5288;42.334;23.876;2022-09-02T14:29:20;9.77;;;8.63;;
10481;SDS011;5288;42.334;23.876;2022-09-02T14:32:02;10.00;;;8.80;;
10481;SDS011;5288;42.334;23.876;2022-09-02T14:34:35;13.43;;;9.37;;
10481;SDS011;5288;42.334;23.876;2022-09-02T14:37:22;10.03;;;8.93;;
10481;SDS011;5288;42.334;23.876;2022-09-02T14:39:51;10.73;;;9.73;;
10481;SDS011;5288;42.334;23.876;2022-09-02T14:42:27;11.70;;;9.53;;
10481;SDS011;5288;42.334;23.876;2022-09-02T14:44:56;19.07;;;10.73;;
10481;SDS011;5288;42.334;23.876;2022-09-02T14:47:23;12.27;;;10.40;;
10481;SDS011;5288;42.334;23.876;2022-09-02T14:49:52;10.93;;;9.63;;
10481;SDS011;5288;42.334;23.876;2022-09-02T14:52:22;12.77;;;10.47;;
10481;SDS011;5288;42.334;23.876;2022-09-02T14:54:52;10.83;;;9.30;;
10481;SDS011;5288;42.334;23.876;2022-09-02T14:57:21;13.10;;;10.30;;
10481;SDS011;5288;42.334;23.876;2022-09-02T14:59:52;10.13;;;9.13;;
10481;SDS011;5288;42.334;23.876;2022-09-02T15:02:28;13.27;;;10.40;;
10481;SDS011;5288;42.334;23.876;2022-09-02T15:04:58;10.63;;;9.70;;
10481;SDS011;5288;42.334;23.876;2022-09-02T15:07:26;10.50;;;9.50;;
10481;SDS011;5288;42.334;23.876;2022-09-02T15:09:53;10.47;;;9.33;;
10481;SDS011;5288;42.334;23.876;2022-09-02T15:12:21;14.73;;;10.07;;
10481;SDS011;5288;42.334;23.876;2022-09-02T15:14:51;11.23;;;10.13;;
10481;SDS011;5288;42.334;23.876;2022-09-02T15:17:18;11.10;;;10.00;;
10481;SDS011;5288;42.334;23.876;2022-09-02T15:19:47;10.63;;;9.70;;
10481;SDS011;5288;42.334;23.876;2022-09-02T15:22:15;13.40;;;10.33;;
10481;SDS011;5288;42.334;23.876;2022-09-02T15:24:43;11.37;;;10.00;;
10481;SDS011;5288;42.334;23.876;2022-09-02T15:27:12;11.97;;;10.13;;
10481;SDS011;5288;42.334;23.876;2022-09-02T15:29:40;11.43;;;9.80;;